createdAt,value
2023-03-27T00:04:04.481Z,1.85
2023-03-27T00:08:59.659Z,2.58
2023-03-27T00:13:55.453Z,1.90
2023-03-27T00:18:58.135Z,1.90
2023-03-27T00:24:03.787Z,2.20
2023-03-27T00:29:02.818Z,2.13
2023-03-27T00:34:03.653Z,2.03
2023-03-27T00:38:57.447Z,1.80
2023-03-27T00:44:02.089Z,1.70
2023-03-27T00:49:04.823Z,1.80
2023-03-27T00:53:59.730Z,2.15
2023-03-27T00:58:58.946Z,1.70
2023-03-27T01:04:21.856Z,1.85
2023-03-27T01:09:20.623Z,1.85
2023-03-27T01:14:34.166Z,1.80
2023-03-27T01:20:02.973Z,1.60
2023-03-27T01:25:35.163Z,1.60
2023-03-27T01:30:32.634Z,1.50
2023-03-27T01:36:03.349Z,1.73
2023-03-27T01:41:05.986Z,1.60
2023-03-27T01:46:08.840Z,1.60
2023-03-27T01:51:15.540Z,1.45
2023-03-27T01:56:19.752Z,1.73
2023-03-27T02:01:21.627Z,1.63
2023-03-27T02:06:27.806Z,1.80
2023-03-27T02:11:52.142Z,2.60
2023-03-27T02:16:56.576Z,4.35
2023-03-27T02:22:53.876Z,3.60
2023-03-27T02:28:12.010Z,3.40
2023-03-27T02:34:06.197Z,2.13
2023-03-27T02:39:19.219Z,2.00
2023-03-27T02:44:59.576Z,2.35
2023-03-27T02:49:57.803Z,2.00
2023-03-27T02:55:07.676Z,2.10
2023-03-27T03:00:25.892Z,2.08
2023-03-27T03:06:06.823Z,2.13
2023-03-27T03:11:26.623Z,2.05
2023-03-27T03:16:25.779Z,2.00
2023-03-27T03:21:32.459Z,1.90
2023-03-27T03:26:32.709Z,2.17
2023-03-27T03:31:28.268Z,2.33
2023-03-27T03:36:26.127Z,3.45
2023-03-27T03:41:56.321Z,1.80
2023-03-27T03:47:02.402Z,1.90
2023-03-27T03:52:39.097Z,1.58
2023-03-27T03:58:12.252Z,1.92
2023-03-27T04:10:52.261Z,1.70
2023-03-27T04:21:39.986Z,2.15
2023-03-27T04:27:06.886Z,1.95
2023-03-27T04:32:35.820Z,2.00
2023-03-27T04:38:05.950Z,2.17
2023-03-27T04:48:47.470Z,2.08
2023-03-27T04:53:53.453Z,1.95
2023-03-27T04:59:09.259Z,1.80
2023-03-27T05:04:35.818Z,1.92
2023-03-27T05:09:50.701Z,2.10
2023-03-27T05:20:50.468Z,1.95
2023-03-27T05:31:36.298Z,2.15
2023-03-27T05:37:20.991Z,2.40
2023-03-27T05:43:08.633Z,2.30
2023-03-27T05:53:41.663Z,2.20
2023-03-27T05:59:23.310Z,2.63
2023-03-27T06:04:34.375Z,3.10
2023-03-27T06:10:05.145Z,3.47
2023-03-27T06:16:06.770Z,3.20
2023-03-27T06:22:07.098Z,3.25
2023-03-27T06:27:42.215Z,3.40
2023-03-27T06:33:23.601Z,4.03
2023-03-27T06:38:48.833Z,3.60
2023-03-27T06:43:48.615Z,3.83
2023-03-27T06:55:48.961Z,3.65
2023-03-27T07:00:49.937Z,4.13
2023-03-27T07:05:51.132Z,3.78
2023-03-27T07:16:08.482Z,4.10
2023-03-27T07:21:04.612Z,4.32
2023-03-27T07:26:02.294Z,4.03
2023-03-27T07:31:42.005Z,4.13
2023-03-27T07:36:39.325Z,3.53
2023-03-27T07:41:48.331Z,4.18
2023-03-27T07:46:59.673Z,4.13
2023-03-27T07:51:55.383Z,4.57
2023-03-27T07:56:54.177Z,4.22
2023-03-27T08:01:57.964Z,4.10
2023-03-27T08:07:46.284Z,4.50
2023-03-27T08:13:02.944Z,3.67
2023-03-27T08:18:07.274Z,4.20
2023-03-27T08:23:09.993Z,3.97
2023-03-27T08:28:14.573Z,3.75
2023-03-27T08:33:35.005Z,3.50
2023-03-27T08:43:49.561Z,4.07
2023-03-27T08:49:16.852Z,3.53
2023-03-27T08:54:34.739Z,4.13
2023-03-27T08:59:34.352Z,3.40
2023-03-27T09:04:56.165Z,3.60
2023-03-27T09:10:02.062Z,3.55
2023-03-27T09:15:11.060Z,5.10
2023-03-27T09:20:21.091Z,3.42
2023-03-27T09:25:28.602Z,3.97
2023-03-27T09:30:34.572Z,3.92
2023-03-27T09:35:54.266Z,3.80
2023-03-27T09:40:54.271Z,3.10
2023-03-27T09:45:56.533Z,3.40
2023-03-27T09:51:05.576Z,3.35
2023-03-27T09:56:25.895Z,3.55
2023-03-27T10:01:34.888Z,3.90
2023-03-27T10:06:58.104Z,3.60
2023-03-27T10:12:29.390Z,4.35
2023-03-27T10:17:39.488Z,3.72
2023-03-27T10:22:59.794Z,3.88
2023-03-27T10:28:57.152Z,3.78
2023-03-27T10:33:58.351Z,3.60
2023-03-27T10:39:21.236Z,4.55
2023-03-27T10:44:48.081Z,4.38
2023-03-27T10:50:22.451Z,4.00
2023-03-27T10:55:48.964Z,3.47
2023-03-27T11:01:05.552Z,3.30
2023-03-27T11:06:16.024Z,3.50
2023-03-27T11:11:26.165Z,3.42
2023-03-27T11:16:47.436Z,3.53
2023-03-27T11:28:36.403Z,3.80
2023-03-27T11:35:04.207Z,3.67
2023-03-27T11:41:09.465Z,4.68
2023-03-27T11:53:42.011Z,4.45
2023-03-27T11:58:43.528Z,4.75
2023-03-27T12:04:10.567Z,4.97
2023-03-27T12:09:53.164Z,4.63
2023-03-27T12:15:34.711Z,4.60
2023-03-27T12:21:01.844Z,4.30
2023-03-27T12:26:32.456Z,5.40
2023-03-27T12:32:23.469Z,8.07
2023-03-27T12:37:51.325Z,6.22
2023-03-27T12:43:57.401Z,4.28
2023-03-27T12:49:47.693Z,3.92
2023-03-27T12:55:58.629Z,3.38
2023-03-27T13:21:31.132Z,3.20
2023-03-27T13:40:28.282Z,4.05
2023-03-27T13:45:50.434Z,3.90
2023-03-27T13:52:30.047Z,3.90
2023-03-27T14:04:21.289Z,3.88
2023-03-27T14:10:03.479Z,4.38
2023-03-27T14:22:35.058Z,3.90
2023-03-27T14:27:42.222Z,4.00
2023-03-27T14:46:09.398Z,4.07
2023-03-27T14:51:55.958Z,3.85
2023-03-27T15:04:07.477Z,4.28
2023-03-27T15:09:33.771Z,4.75
2023-03-27T15:15:13.636Z,4.60
2023-03-27T15:20:18.285Z,4.53
2023-03-27T15:25:28.048Z,4.32
2023-03-27T15:30:46.411Z,4.75
2023-03-27T15:36:05.156Z,5.20
2023-03-27T15:41:48.941Z,6.97
2023-03-27T15:47:09.358Z,4.72
2023-03-27T15:52:39.278Z,9.05
2023-03-27T16:04:15.606Z,6.18
2023-03-27T16:09:29.166Z,7.60
2023-03-27T16:14:44.048Z,7.72
2023-03-27T16:20:05.369Z,5.75
2023-03-27T16:25:39.397Z,6.90
2023-03-27T16:30:39.656Z,7.07
2023-03-27T16:41:55.188Z,6.75
2023-03-27T16:47:06.980Z,9.30
2023-03-27T16:52:20.643Z,8.50
2023-03-27T17:03:08.738Z,7.07
2023-03-27T17:08:44.254Z,7.63
2023-03-27T17:14:38.616Z,8.55
2023-03-27T17:20:36.406Z,8.45
2023-03-27T17:26:12.577Z,9.23
2023-03-27T17:32:50.454Z,8.45
2023-03-27T17:38:05.637Z,8.05
2023-03-27T17:43:20.811Z,7.90
2023-03-27T17:48:29.400Z,10.35
2023-03-27T17:53:46.661Z,10.05
2023-03-27T17:59:05.314Z,10.63
2023-03-27T18:04:01.499Z,9.20
2023-03-27T18:09:13.596Z,8.43
2023-03-27T18:14:48.976Z,8.35
2023-03-27T18:20:04.454Z,8.80
2023-03-27T18:25:25.658Z,8.30
2023-03-27T18:36:35.096Z,9.55
2023-03-27T18:42:05.594Z,8.95
2023-03-27T18:47:35.970Z,9.02
2023-03-27T18:52:42.216Z,9.05
2023-03-27T18:57:46.667Z,8.75
2023-03-27T19:02:46.736Z,8.88
2023-03-27T19:12:52.527Z,9.07
2023-03-27T19:18:16.571Z,9.75
2023-03-27T19:23:40.501Z,9.70
2023-03-27T19:29:06.781Z,9.38
2023-03-27T19:34:17.027Z,9.75
2023-03-27T19:39:21.679Z,10.05
2023-03-27T19:44:45.958Z,9.48
2023-03-27T19:55:00.127Z,10.20
2023-03-27T20:06:07.810Z,10.18
2023-03-27T20:11:12.353Z,10.23
2023-03-27T20:21:38.899Z,9.70
2023-03-27T20:26:53.210Z,8.88
2023-03-27T20:38:26.395Z,7.40
2023-03-27T20:43:56.612Z,6.78
2023-03-27T20:49:01.444Z,5.78
2023-03-27T20:54:11.428Z,5.32
2023-03-27T20:59:25.591Z,6.67
2023-03-27T21:04:46.941Z,5.95
2023-03-27T21:10:04.630Z,5.90
2023-03-27T21:14:58.419Z,4.47
2023-03-27T21:19:55.857Z,5.72
2023-03-27T21:24:59.614Z,6.07
2023-03-27T21:35:23.703Z,5.65
2023-03-27T21:40:43.813Z,5.68
2023-03-27T21:46:19.502Z,4.72
2023-03-27T21:52:01.010Z,5.00
2023-03-27T21:57:20.326Z,5.05
2023-03-27T22:09:20.866Z,5.20
2023-03-27T22:14:37.380Z,4.63
2023-03-27T22:19:58.243Z,5.25
2023-03-27T22:25:01.840Z,6.70
2023-03-27T22:30:22.876Z,8.65
2023-03-27T22:40:53.873Z,8.38
2023-03-27T22:45:47.840Z,5.80
2023-03-27T22:50:56.875Z,6.03
2023-03-27T22:56:03.269Z,5.63
2023-03-27T23:01:12.421Z,5.43
2023-03-27T23:06:19.930Z,5.57
2023-03-27T23:11:25.899Z,5.60
2023-03-27T23:16:28.755Z,5.55
2023-03-27T23:21:31.915Z,6.88
2023-03-27T23:26:32.990Z,5.82
2023-03-27T23:31:42.111Z,6.43
2023-03-27T23:36:40.834Z,6.43
2023-03-27T23:47:13.933Z,8.20
2023-03-27T23:52:10.229Z,4.00
2023-03-27T23:57:31.811Z,5.28
